Time;durP1;ratioP1;P1;durP2;ratioP2;P2;SDS_P1;SDS_P2;PMS_P1;PMS_P2;Temp;Humidity;BMP_temperature;BMP_pressure;BME280_temperature;BME280_humidity;BME280_pressure;Samples;Min_cycle;Max_cycle;Signal;HPM_P1;HPM_P2
2023/09/27 00:02:21;;;;;;;2.40;2.20;;;19.50;68.70;;;;;;5133524;27;20195;-67
2023/09/27 00:04:46;;;;;;;2.75;2.55;;;19.50;68.70;;;;;;5133562;27;20175;-67
2023/09/27 00:07:12;;;;;;;2.20;1.98;;;19.50;68.70;;;;;;5134020;27;20208;-66
2023/09/27 00:09:37;;;;;;;2.70;2.47;;;19.50;68.70;;;;;;5133518;27;20186;-67
2023/09/27 00:12:04;;;;;;;2.67;2.47;;;19.50;68.70;;;;;;5134256;27;20172;-67
2023/09/27 00:14:30;;;;;;;2.88;2.60;;;19.50;68.70;;;;;;5134390;27;20172;-67
2023/09/27 00:16:56;;;;;;;2.70;2.50;;;19.50;68.70;;;;;;5133533;27;20180;-67
2023/09/27 00:19:22;;;;;;;2.70;2.50;;;19.50;68.70;;;;;;5134203;27;20228;-67
2023/09/27 00:21:47;;;;;;;2.80;2.60;;;19.50;68.70;;;;;;5134247;27;20164;-67
2023/09/27 00:24:13;;;;;;;2.60;2.40;;;19.50;68.70;;;;;;5133136;27;20179;-66
2023/09/27 00:26:38;;;;;;;3.03;2.72;;;19.50;68.70;;;;;;5134332;27;20173;-67
2023/09/27 00:29:04;;;;;;;2.70;2.50;;;19.50;68.70;;;;;;5133723;27;20216;-67
2023/09/27 00:31:29;;;;;;;2.38;2.28;;;19.50;68.70;;;;;;5133235;27;20164;-67
2023/09/27 00:33:55;;;;;;;2.88;2.63;;;19.50;68.80;;;;;;5134038;27;20768;-66
2023/09/27 00:36:20;;;;;;;2.58;2.38;;;19.50;68.70;;;;;;5133537;27;20182;-66
2023/09/27 00:38:46;;;;;;;2.13;2.03;;;19.50;68.70;;;;;;5133205;27;20183;-67
2023/09/27 00:41:11;;;;;;;2.35;2.15;;;19.50;68.70;;;;;;5133523;27;20196;-66
2023/09/27 00:43:37;;;;;;;2.47;2.28;;;19.50;68.70;;;;;;5133681;27;20176;-67
2023/09/27 00:46:04;;;;;;;2.97;2.78;;;19.40;68.70;;;;;;5132631;27;20216;-67
2023/09/27 00:48:30;;;;;;;2.80;2.60;;;19.40;68.70;;;;;;5133890;27;20212;-67
2023/09/27 00:50:56;;;;;;;2.58;2.38;;;19.50;68.80;;;;;;5133066;27;20584;-66
2023/09/27 00:53:22;;;;;;;2.70;2.28;;;19.40;68.70;;;;;;5133309;27;20176;-66
2023/09/27 00:55:48;;;;;;;2.67;2.47;;;19.50;68.70;;;;;;5133705;27;20549;-66
2023/09/27 00:58:19;;;;;;;2.60;2.40;;;19.40;68.70;;;;;;5114451;28;20263;-66
2023/09/27 01:00:49;;;;;;;2.17;2.08;;;19.50;68.70;;;;;;5133637;27;20179;-67
2023/09/27 01:03:15;;;;;;;2.65;2.45;;;19.40;68.70;;;;;;5133598;27;20183;-67
2023/09/27 01:05:44;;;;;;;2.50;2.30;;;19.50;68.80;;;;;;5132917;28;20173;-67
2023/09/27 01:08:09;;;;;;;2.88;2.58;;;19.50;68.80;;;;;;5133341;28;20208;-67
2023/09/27 01:10:35;;;;;;;2.28;2.08;;;19.50;68.80;;;;;;5133416;28;20171;-66
2023/09/27 01:13:02;;;;;;;2.50;2.30;;;19.50;68.80;;;;;;5132560;28;20176;-67
2023/09/27 01:15:27;;;;;;;3.03;2.75;;;19.40;68.70;;;;;;5134786;27;20169;-67
2023/09/27 01:17:57;;;;;;;2.30;2.03;;;19.40;68.70;;;;;;5137981;27;20179;-67
2023/09/27 01:20:23;;;;;;;2.97;2.60;;;19.40;68.70;;;;;;5137077;27;20176;-66
2023/09/27 01:22:58;;;;;;;2.95;2.65;;;19.40;68.70;;;;;;5137764;27;20259;-67
2023/09/27 01:25:29;;;;;;;2.60;2.40;;;19.40;68.80;;;;;;5137565;27;20164;-66
2023/09/27 01:27:59;;;;;;;2.97;2.17;;;19.40;68.80;;;;;;5136869;27;20215;-66
2023/09/27 01:30:33;;;;;;;2.75;2.55;;;19.40;68.70;;;;;;5137533;27;20195;-67
2023/09/27 01:33:05;;;;;;;3.53;2.42;;;19.40;68.70;;;;;;5136803;27;20167;-67
2023/09/27 01:35:41;;;;;;;2.92;2.72;;;19.40;68.80;;;;;;5137519;27;20176;-66
2023/09/27 01:38:07;;;;;;;2.20;2.05;;;19.40;68.80;;;;;;5137061;27;20176;-66
2023/09/27 01:40:36;;;;;;;2.47;2.28;;;19.40;68.80;;;;;;5136528;27;20221;-67
2023/09/27 01:43:02;;;;;;;2.60;2.40;;;19.40;68.80;;;;;;5137421;27;20208;-67
2023/09/27 01:45:31;;;;;;;2.33;2.13;;;19.40;68.80;;;;;;5137422;27;20637;-67
2023/09/27 01:47:57;;;;;;;2.50;2.30;;;19.40;68.80;;;;;;5136684;27;20248;-67
2023/09/27 01:50:24;;;;;;;2.60;2.40;;;19.40;68.80;;;;;;5136976;27;20230;-66
2023/09/27 01:52:50;;;;;;;2.40;2.20;;;19.40;68.80;;;;;;5119122;27;20176;-66
2023/09/27 01:55:16;;;;;;;2.63;2.42;;;19.40;68.80;;;;;;5136125;27;20180;-66
2023/09/27 01:57:41;;;;;;;2.72;2.53;;;19.40;68.80;;;;;;5137022;27;20292;-66
2023/09/27 02:00:11;;;;;;;2.70;2.50;;;19.40;68.80;;;;;;5136876;27;20173;-66
2023/09/27 02:02:37;;;;;;;2.50;2.30;;;19.40;68.80;;;;;;5136360;27;20168;-68
2023/09/27 02:05:03;;;;;;;2.60;2.40;;;19.40;69.60;;;;;;5136621;27;20176;-66
2023/09/27 02:07:28;;;;;;;2.53;2.30;;;19.40;68.80;;;;;;5136580;27;20219;-66
2023/09/27 02:09:54;;;;;;;2.80;2.60;;;19.40;68.80;;;;;;5136120;27;20164;-66
2023/09/27 02:12:19;;;;;;;2.60;2.40;;;19.40;68.80;;;;;;5136405;27;20196;-65
2023/09/27 02:14:45;;;;;;;2.55;2.35;;;19.40;68.80;;;;;;5136753;27;20172;-66
2023/09/27 02:17:11;;;;;;;2.70;2.50;;;19.40;68.80;;;;;;5135740;27;20256;-67
2023/09/27 02:19:36;;;;;;;2.47;2.30;;;19.40;68.80;;;;;;5136603;27;20168;-65
2023/09/27 02:22:02;;;;;;;2.55;2.35;;;19.40;68.80;;;;;;5136270;27;20272;-65
2023/09/27 02:24:28;;;;;;;2.65;2.45;;;19.30;68.80;;;;;;5135780;27;20172;-66
2023/09/27 02:26:54;;;;;;;2.55;2.35;;;19.40;68.80;;;;;;5135251;27;20690;-66
2023/09/27 02:29:20;;;;;;;2.42;2.22;;;19.30;68.80;;;;;;5135389;27;20272;-66
2023/09/27 02:31:45;;;;;;;2.88;2.47;;;19.30;68.80;;;;;;5136613;27;20175;-66
2023/09/27 02:34:12;;;;;;;2.75;2.55;;;19.40;68.90;;;;;;5136088;27;20172;-67
2023/09/27 02:36:38;;;;;;;2.53;2.30;;;19.40;68.80;;;;;;5135555;27;20649;-66
2023/09/27 02:39:04;;;;;;;2.50;2.30;;;19.30;68.80;;;;;;5136197;27;20209;-66
2023/09/27 02:41:30;;;;;;;2.58;2.38;;;19.30;68.80;;;;;;5136327;27;20662;-67
2023/09/27 02:43:55;;;;;;;2.50;2.30;;;19.40;68.80;;;;;;5135640;27;20642;-67
2023/09/27 02:46:21;;;;;;;2.40;2.22;;;19.30;68.80;;;;;;5135690;27;20259;-67
2023/09/27 02:48:46;;;;;;;2.78;2.58;;;19.30;68.80;;;;;;5136089;27;20207;-67
2023/09/27 02:51:15;;;;;;;2.47;2.28;;;19.30;68.80;;;;;;5134862;27;20172;-66
2023/09/27 02:53:41;;;;;;;2.47;2.03;;;19.30;68.80;;;;;;5136117;27;20191;-66
2023/09/27 02:56:07;;;;;;;2.95;2.75;;;19.30;68.80;;;;;;5135784;27;20164;-66
2023/09/27 02:58:33;;;;;;;2.78;2.45;;;19.30;69.50;;;;;;5135200;27;20176;-66
2023/09/27 03:00:58;;;;;;;3.13;2.63;;;19.30;68.70;;;;;;5135777;27;20202;-66
2023/09/27 03:03:24;;;;;;;2.85;2.53;;;19.30;68.70;;;;;;5135602;27;20176;-66
2023/09/27 03:05:50;;;;;;;2.88;2.40;;;19.30;68.80;;;;;;5135349;27;20175;-67
2023/09/27 03:08:15;;;;;;;2.42;2.22;;;19.20;68.60;;;;;;5135447;27;20212;-66
2023/09/27 03:10:41;;;;;;;2.60;2.40;;;19.30;68.70;;;;;;5135698;27;20173;-66
2023/09/27 03:13:09;;;;;;;2.75;2.55;;;19.30;68.70;;;;;;5134537;27;20185;-66
2023/09/27 03:15:35;;;;;;;2.60;2.40;;;19.30;68.70;;;;;;5135418;27;20639;-67
2023/09/27 03:18:01;;;;;;;2.75;2.55;;;19.30;68.80;;;;;;5135265;27;20172;-66
2023/09/27 03:20:26;;;;;;;2.67;2.47;;;19.30;68.70;;;;;;5134593;27;20645;-66
2023/09/27 03:22:52;;;;;;;2.83;2.63;;;19.30;68.80;;;;;;5135342;27;20225;-66
2023/09/27 03:25:18;;;;;;;3.17;2.92;;;19.20;68.60;;;;;;5135109;27;20174;-66
2023/09/27 03:27:43;;;;;;;2.28;2.17;;;19.20;68.70;;;;;;5134553;27;20219;-67
2023/09/27 03:30:10;;;;;;;2.95;2.75;;;19.30;68.80;;;;;;5134994;27;20202;-67
2023/09/27 03:32:36;;;;;;;3.08;2.45;;;19.30;68.70;;;;;;5134330;27;20579;-66
2023/09/27 03:35:01;;;;;;;2.90;2.70;;;19.30;68.70;;;;;;5135198;27;20164;-66
2023/09/27 03:37:27;;;;;;;2.75;2.55;;;19.30;68.80;;;;;;5135191;27;20180;-66
2023/09/27 03:39:52;;;;;;;3.40;3.03;;;19.20;68.70;;;;;;5134316;27;20168;-67
2023/09/27 03:42:20;;;;;;;3.78;2.90;;;19.30;68.80;;;;;;5134734;27;20538;-67
2023/09/27 03:44:46;;;;;;;3.10;2.80;;;19.20;68.60;;;;;;5135058;27;20180;-67
2023/09/27 03:47:12;;;;;;;2.72;2.30;;;19.20;68.60;;;;;;5133705;27;20364;-67
2023/09/27 03:49:40;;;;;;;3.08;2.80;;;19.20;68.70;;;;;;5134755;27;20267;-67
2023/09/27 03:52:05;;;;;;;2.60;2.40;;;19.20;68.60;;;;;;5134471;27;20177;-67
2023/09/27 03:54:31;;;;;;;3.03;2.83;;;19.20;68.60;;;;;;5134093;27;20305;-66
2023/09/27 03:56:56;;;;;;;2.80;2.60;;;19.20;68.70;;;;;;5134835;27;20302;-66
2023/09/27 03:59:22;;;;;;;2.80;2.58;;;19.20;68.70;;;;;;5134329;27;20204;-66
2023/09/27 04:01:48;;;;;;;3.22;2.92;;;19.20;68.70;;;;;;5133951;27;20165;-66
2023/09/27 04:04:13;;;;;;;3.00;2.80;;;19.20;68.70;;;;;;5134573;27;20230;-71
2023/09/27 04:06:39;;;;;;;3.67;2.50;;;19.20;68.70;;;;;;5134559;27;20165;-66
2023/09/27 04:09:05;;;;;;;2.60;2.40;;;19.20;68.60;;;;;;5133593;27;20208;-67
2023/09/27 04:11:31;;;;;;;2.75;2.55;;;19.20;68.60;;;;;;5134555;27;20164;-66
2023/09/27 04:13:56;;;;;;;2.90;2.70;;;19.20;68.60;;;;;;5134374;27;20674;-67
2023/09/27 04:16:23;;;;;;;3.35;3.05;;;19.20;68.60;;;;;;5133308;27;20547;-67
2023/09/27 04:18:48;;;;;;;3.03;2.72;;;19.20;68.60;;;;;;5134556;27;20173;-67
2023/09/27 04:21:14;;;;;;;2.63;2.42;;;19.20;68.60;;;;;;5134178;27;20257;-66
2023/09/27 04:23:41;;;;;;;2.50;2.30;;;19.20;68.70;;;;;;5133595;27;20259;-66
2023/09/27 04:26:07;;;;;;;2.47;2.28;;;19.20;68.70;;;;;;5133871;27;20631;-67
2023/09/27 04:28:33;;;;;;;3.03;2.83;;;19.20;68.60;;;;;;5098801;27;20204;-67
2023/09/27 04:30:58;;;;;;;2.85;2.65;;;19.20;68.60;;;;;;5133151;27;20259;-66
2023/09/27 04:33:24;;;;;;;3.00;2.80;;;19.20;68.60;;;;;;5133834;27;20260;-67
2023/09/27 04:35:49;;;;;;;2.70;2.50;;;19.20;68.60;;;;;;5133513;27;20173;-66
2023/09/27 04:38:16;;;;;;;2.85;2.65;;;19.20;68.70;;;;;;5133749;27;20176;-67
2023/09/27 04:40:41;;;;;;;3.35;2.88;;;19.10;68.60;;;;;;5133995;27;20183;-67
2023/09/27 04:43:07;;;;;;;3.22;2.58;;;19.20;68.60;;;;;;5132976;27;20492;-67
2023/09/27 04:45:33;;;;;;;3.15;2.95;;;19.10;68.50;;;;;;5132977;27;20175;-67
2023/09/27 04:47:59;;;;;;;2.55;2.35;;;19.20;68.70;;;;;;5115767;27;20341;-67
2023/09/27 04:50:25;;;;;;;2.60;2.40;;;19.20;68.70;;;;;;5132492;27;20610;-67
2023/09/27 04:52:51;;;;;;;2.97;2.78;;;19.10;68.60;;;;;;5133815;27;20595;-66
2023/09/27 04:55:17;;;;;;;2.90;2.70;;;19.10;68.60;;;;;;5133441;27;20223;-66
2023/09/27 04:57:42;;;;;;;3.25;2.95;;;19.10;68.60;;;;;;5133032;27;20199;-66
2023/09/27 05:00:18;;;;;;;2.72;2.53;;;19.20;68.60;;;;;;5133251;27;20179;-67
2023/09/27 05:02:45;;;;;;;2.97;2.67;;;19.10;68.50;;;;;;5133717;27;20259;-67
2023/09/27 05:05:10;;;;;;;4.88;2.95;;;19.10;68.60;;;;;;5132736;27;20236;-67
2023/09/27 05:07:36;;;;;;;2.67;2.42;;;19.10;68.50;;;;;;5133567;28;20203;-66
2023/09/27 05:10:01;;;;;;;2.63;2.42;;;19.10;68.60;;;;;;5133350;28;20168;-66
2023/09/27 05:12:27;;;;;;;2.97;2.78;;;19.10;68.60;;;;;;5132704;28;20180;-66
2023/09/27 05:14:52;;;;;;;3.25;2.53;;;19.10;68.60;;;;;;5133555;28;20263;-67
2023/09/27 05:17:18;;;;;;;3.70;2.90;;;19.10;68.60;;;;;;5133070;28;20263;-66
2023/09/27 05:19:44;;;;;;;2.72;2.53;;;19.10;68.60;;;;;;5132705;28;20181;-66
2023/09/27 05:22:09;;;;;;;2.70;2.50;;;19.10;68.60;;;;;;5133272;28;20188;-66
2023/09/27 05:24:38;;;;;;;2.60;2.40;;;19.10;68.60;;;;;;5133480;28;20214;-66
2023/09/27 05:27:05;;;;;;;2.83;2.63;;;19.10;68.60;;;;;;5132330;28;20177;-66
2023/09/27 05:29:31;;;;;;;3.55;2.88;;;19.10;68.60;;;;;;5133248;28;20232;-66
2023/09/27 05:31:56;;;;;;;3.20;2.90;;;19.10;68.60;;;;;;5133649;28;20263;-66
2023/09/27 05:34:22;;;;;;;2.63;2.42;;;19.10;68.60;;;;;;5132685;28;20661;-66
2023/09/27 05:36:48;;;;;;;2.45;2.25;;;19.10;68.60;;;;;;5133491;28;20205;-66
2023/09/27 05:39:13;;;;;;;2.60;2.40;;;19.10;68.50;;;;;;5132396;28;20654;-66
2023/09/27 05:41:39;;;;;;;3.00;2.80;;;19.10;68.60;;;;;;5133237;28;20181;-65
2023/09/27 05:44:05;;;;;;;2.42;2.22;;;19.10;68.50;;;;;;5132876;28;20725;-67
2023/09/27 05:46:33;;;;;;;3.28;2.97;;;19.10;68.50;;;;;;5132302;28;20248;-66
2023/09/27 05:49:03;;;;;;;2.70;2.50;;;19.10;68.50;;;;;;5133159;28;20216;-66
2023/09/27 05:51:30;;;;;;;2.35;2.17;;;19.10;68.50;;;;;;5133280;28;20180;-66
2023/09/27 05:53:56;;;;;;;2.90;2.70;;;19.10;68.50;;;;;;5132504;28;20184;-65
2023/09/27 05:56:21;;;;;;;2.97;2.70;;;19.10;68.50;;;;;;5132784;28;20533;-65
2023/09/27 05:58:47;;;;;;;3.30;3.03;;;19.10;68.50;;;;;;5133247;28;20260;-65
2023/09/27 06:01:13;;;;;;;2.72;2.50;;;19.10;68.40;;;;;;5133241;27;20203;-66
2023/09/27 06:03:41;;;;;;;2.70;2.50;;;19.00;68.40;;;;;;5136948;27;20695;-65
2023/09/27 06:06:06;;;;;;;2.97;2.67;;;19.10;68.50;;;;;;5136866;27;20177;-66
2023/09/27 06:08:35;;;;;;;2.50;2.30;;;19.10;68.40;;;;;;5136121;27;20249;-65
2023/09/27 06:11:00;;;;;;;2.75;2.55;;;19.10;68.40;;;;;;5136495;27;20176;-65
2023/09/27 06:13:27;;;;;;;2.67;2.47;;;19.10;68.50;;;;;;5136740;27;20172;-66
2023/09/27 06:15:54;;;;;;;2.92;2.72;;;19.10;68.50;;;;;;5135908;27;20541;-66
2023/09/27 06:18:20;;;;;;;2.60;2.40;;;19.10;68.40;;;;;;5136335;27;20252;-66
2023/09/27 06:20:47;;;;;;;2.42;2.22;;;19.10;68.40;;;;;;5136771;27;20646;-66
2023/09/27 06:23:13;;;;;;;2.92;2.70;;;19.10;68.40;;;;;;5135568;27;20176;-65
2023/09/27 06:25:43;;;;;;;2.58;2.33;;;19.10;68.40;;;;;;5136406;27;20184;-66
2023/09/27 06:28:11;;;;;;;2.72;2.50;;;19.10;68.40;;;;;;5136335;27;20208;-66
2023/09/27 06:30:37;;;;;;;3.10;2.55;;;19.10;68.40;;;;;;5135865;27;20198;-66
2023/09/27 06:33:03;;;;;;;2.85;2.65;;;19.10;68.40;;;;;;5136047;27;20702;-66
2023/09/27 06:35:31;;;;;;;2.72;2.53;;;19.10;68.40;;;;;;5135615;27;20168;-66
2023/09/27 06:38:00;;;;;;;2.60;2.40;;;19.10;68.40;;;;;;5136250;27;20172;-66
2023/09/27 06:40:26;;;;;;;2.28;2.08;;;19.20;68.30;;;;;;5136005;27;20264;-66
2023/09/27 06:42:51;;;;;;;2.90;2.70;;;19.20;68.40;;;;;;5135744;27;20643;-67
2023/09/27 06:45:17;;;;;;;2.58;2.35;;;19.20;68.40;;;;;;5135880;27;20533;-67
2023/09/27 06:47:45;;;;;;;2.60;2.40;;;19.10;68.40;;;;;;5136096;27;20200;-67
2023/09/27 06:50:14;;;;;;;2.70;2.45;;;19.10;68.30;;;;;;5135183;27;20175;-66
2023/09/27 06:52:40;;;;;;;2.20;2.10;;;19.20;68.30;;;;;;5135967;27;20173;-66
2023/09/27 06:55:12;;;;;;;3.00;2.70;;;19.20;68.30;;;;;;5135741;27;20247;-65
2023/09/27 06:57:39;;;;;;;2.97;2.75;;;19.20;68.40;;;;;;5135544;27;20245;-65
2023/09/27 07:00:24;;;;;;;2.58;2.38;;;19.10;68.30;;;;;;5135703;27;20179;-66
2023/09/27 07:02:50;;;;;;;2.72;2.50;;;19.20;68.40;;;;;;5136014;27;20221;-66
2023/09/27 07:05:21;;;;;;;2.67;2.47;;;19.20;68.30;;;;;;5134934;27;20177;-66
2023/09/27 07:07:50;;;;;;;3.10;2.83;;;19.20;68.20;;;;;;5135726;27;20563;-66
2023/09/27 07:10:15;;;;;;;2.60;2.40;;;19.30;68.20;;;;;;5135668;27;20192;-66
2023/09/27 07:12:41;;;;;;;2.80;2.60;;;19.30;68.10;;;;;;5134595;27;20207;-66
2023/09/27 07:15:11;;;;;;;3.10;2.50;;;19.30;68.00;;;;;;5135538;27;20164;-66
2023/09/27 07:17:40;;;;;;;2.75;2.55;;;19.40;67.90;;;;;;5134945;27;20233;-67
2023/09/27 07:20:23;;;;;;;2.67;2.47;;;19.40;67.90;;;;;;5135447;27;20169;-66
2023/09/27 07:22:49;;;;;;;2.40;2.20;;;19.40;67.90;;;;;;5135617;27;20669;-66
2023/09/27 07:25:16;;;;;;;2.80;2.60;;;19.40;68.00;;;;;;5134711;27;20173;-66
2023/09/27 07:27:43;;;;;;;2.55;2.28;;;19.30;68.00;;;;;;5135460;27;20696;-66
2023/09/27 07:30:10;;;;;;;2.88;2.58;;;19.40;68.00;;;;;;5135225;27;20256;-66
2023/09/27 07:32:37;;;;;;;2.63;2.42;;;19.40;67.90;;;;;;5134812;27;20601;-65
2023/09/27 07:35:07;;;;;;;3.05;2.65;;;19.40;67.90;;;;;;5135000;27;20524;-66
2023/09/27 07:37:34;;;;;;;2.60;2.40;;;19.40;68.00;;;;;;5135257;27;20172;-66
2023/09/27 07:40:00;;;;;;;2.92;2.60;;;19.40;68.10;;;;;;5134266;27;20195;-66
2023/09/27 07:42:25;;;;;;;2.65;2.45;;;19.40;68.10;;;;;;5135003;27;20647;-66
2023/09/27 07:44:51;;;;;;;2.42;2.22;;;19.40;68.10;;;;;;5135114;27;20635;-67
2023/09/27 07:47:16;;;;;;;2.45;2.15;;;19.40;68.20;;;;;;5133737;27;20705;-67
2023/09/27 07:49:42;;;;;;;2.83;2.53;;;19.40;69.10;;;;;;5135019;27;20638;-66
2023/09/27 07:52:07;;;;;;;2.72;2.53;;;19.40;68.30;;;;;;5134617;27;20176;-66
2023/09/27 07:54:34;;;;;;;2.40;2.20;;;19.30;68.30;;;;;;5134107;27;20173;-66
2023/09/27 07:57:00;;;;;;;2.38;2.22;;;19.30;68.30;;;;;;5099737;27;20172;-66
2023/09/27 07:59:25;;;;;;;2.70;2.50;;;19.40;69.20;;;;;;5134426;27;20302;-66
2023/09/27 08:01:53;;;;;;;2.60;2.40;;;19.40;68.30;;;;;;5134283;27;20168;-67
2023/09/27 08:04:19;;;;;;;3.22;2.60;;;19.40;68.20;;;;;;5134427;27;20229;-67
2023/09/27 08:06:46;;;;;;;2.83;2.63;;;19.40;68.00;;;;;;5134392;27;20630;-66
2023/09/27 08:09:15;;;;;;;2.95;2.70;;;19.50;68.00;;;;;;5134054;27;20311;-66
2023/09/27 08:11:40;;;;;;;2.95;2.70;;;19.50;68.00;;;;;;5134522;27;20165;-66
2023/09/27 08:14:08;;;;;;;2.72;2.50;;;19.50;68.10;;;;;;5133664;27;20168;-67
2023/09/27 08:16:35;;;;;;;2.97;2.67;;;19.50;68.00;;;;;;5134457;27;20243;-68
2023/09/27 08:19:01;;;;;;;3.63;2.60;;;19.50;68.00;;;;;;5134261;27;20296;-67
2023/09/27 08:21:26;;;;;;;2.95;2.75;;;19.50;67.90;;;;;;5133485;27;20203;-66
2023/09/27 08:23:52;;;;;;;2.70;2.50;;;19.60;67.90;;;;;;5134203;27;20224;-66
2023/09/27 08:26:18;;;;;;;2.90;2.63;;;19.60;67.80;;;;;;5132999;27;20264;-66
2023/09/27 08:28:44;;;;;;;2.90;2.70;;;19.60;67.80;;;;;;5133348;27;20655;-66
2023/09/27 08:31:09;;;;;;;3.30;2.83;;;19.70;67.80;;;;;;5133960;27;20516;-66
2023/09/27 08:33:35;;;;;;;3.13;2.75;;;19.70;67.80;;;;;;5134131;27;20539;-66
2023/09/27 08:36:00;;;;;;;2.90;2.70;;;19.70;68.60;;;;;;5133225;27;20541;-66
2023/09/27 08:38:26;;;;;;;3.22;3.03;;;19.70;67.80;;;;;;5133861;27;20529;-66
2023/09/27 08:40:52;;;;;;;3.20;2.90;;;19.70;67.70;;;;;;5133904;27;20281;-67
2023/09/27 08:43:18;;;;;;;3.60;3.30;;;19.70;67.80;;;;;;5097614;27;20180;-67
2023/09/27 08:45:45;;;;;;;3.53;3.22;;;19.80;67.80;;;;;;5115443;27;20224;-67
2023/09/27 08:48:13;;;;;;;3.25;2.95;;;19.80;67.70;;;;;;5098635;27;20219;-67
2023/09/27 08:50:38;;;;;;;3.10;2.90;;;19.80;67.70;;;;;;5115226;27;20578;-67
2023/09/27 08:53:04;;;;;;;3.67;3.38;;;19.80;67.70;;;;;;5115322;27;20173;-65
2023/09/27 08:55:29;;;;;;;3.17;2.88;;;19.80;67.80;;;;;;5133770;27;20169;-66
2023/09/27 08:57:55;;;;;;;2.78;2.58;;;19.80;67.80;;;;;;5114745;27;20638;-66
2023/09/27 09:00:23;;;;;;;2.70;2.50;;;19.90;67.70;;;;;;5133473;27;20620;-66
2023/09/27 09:02:52;;;;;;;2.90;2.70;;;19.90;67.60;;;;;;5133796;27;20201;-67
2023/09/27 09:05:18;;;;;;;2.80;2.60;;;20.00;67.50;;;;;;5132727;27;20437;-67
2023/09/27 09:07:43;;;;;;;2.70;2.50;;;19.90;67.50;;;;;;5115375;28;20283;-67
2023/09/27 09:10:16;;;;;;;2.47;2.28;;;20.00;67.50;;;;;;5132597;28;20666;-66
2023/09/27 09:12:42;;;;;;;2.42;2.28;;;20.10;67.40;;;;;;5133720;28;20177;-67
2023/09/27 09:15:35;;;;;;;3.05;2.55;;;20.10;67.30;;;;;;5133438;28;20240;-67
2023/09/27 09:18:06;;;;;;;2.70;2.50;;;20.20;67.30;;;;;;5132719;28;20219;-67
2023/09/27 09:20:48;;;;;;;2.75;2.40;;;20.10;67.20;;;;;;5115979;28;20172;-67
2023/09/27 09:23:31;;;;;;;2.20;2.00;;;20.10;67.30;;;;;;5133495;28;20195;-66
2023/09/27 09:25:57;;;;;;;2.65;2.45;;;20.10;67.20;;;;;;5132955;28;20183;-66
2023/09/27 09:28:23;;;;;;;2.67;2.47;;;20.10;67.20;;;;;;5133102;28;20220;-67
2023/09/27 09:30:49;;;;;;;2.92;2.63;;;20.20;67.30;;;;;;5133712;28;20196;-67
2023/09/27 09:33:19;;;;;;;2.45;2.25;;;20.20;67.10;;;;;;5132252;28;20638;-66
2023/09/27 09:35:45;;;;;;;2.50;2.30;;;20.30;67.00;;;;;;5133742;27;20178;-67
2023/09/27 09:38:11;;;;;;;2.50;2.30;;;20.30;66.90;;;;;;5137144;27;20168;-67
2023/09/27 09:40:53;;;;;;;2.50;2.30;;;20.40;66.90;;;;;;5136807;27;20202;-67
2023/09/27 09:43:37;;;;;;;2.67;2.47;;;20.30;66.70;;;;;;5136976;27;20221;-67
2023/09/27 09:46:06;;;;;;;3.08;2.40;;;20.30;66.80;;;;;;5136372;27;20315;-67
2023/09/27 09:48:33;;;;;;;2.35;2.15;;;20.30;66.90;;;;;;5137056;27;20666;-67
2023/09/27 09:51:08;;;;;;;2.40;2.20;;;20.40;66.90;;;;;;5137127;27;20647;-67
2023/09/27 09:53:38;;;;;;;2.45;2.25;;;20.30;66.80;;;;;;5136602;27;20183;-66
2023/09/27 09:56:05;;;;;;;2.47;2.28;;;20.30;67.00;;;;;;5136734;27;20173;-66
2023/09/27 09:58:44;;;;;;;2.10;2.00;;;20.30;67.10;;;;;;5102202;27;20172;-66
2023/09/27 10:01:12;;;;;;;2.67;2.47;;;20.30;67.10;;;;;;5136238;27;20172;-67
2023/09/27 10:03:37;;;;;;;2.60;2.40;;;20.30;67.10;;;;;;5119132;27;20252;-67
2023/09/27 10:06:04;;;;;;;2.00;1.90;;;20.30;67.10;;;;;;5118414;27;20271;-67
2023/09/27 10:08:34;;;;;;;2.90;2.40;;;20.30;67.20;;;;;;5117912;27;20204;-67
2023/09/27 10:11:06;;;;;;;2.50;2.30;;;20.20;67.20;;;;;;5123233;27;20264;-66
2023/09/27 10:13:35;;;;;;;2.50;2.28;;;20.20;67.30;;;;;;5115596;28;20272;-66
2023/09/27 10:16:03;;;;;;;2.67;2.47;;;20.20;67.30;;;;;;5081133;28;20241;-67
2023/09/27 10:18:30;;;;;;;2.60;2.40;;;20.30;67.10;;;;;;5098166;28;20184;-67
2023/09/27 10:21:05;;;;;;;2.72;2.30;;;20.30;67.10;;;;;;5115420;28;20181;-67
2023/09/27 10:23:45;;;;;;;2.60;2.40;;;20.30;67.20;;;;;;5115927;28;20312;-66
2023/09/27 10:26:17;;;;;;;2.40;2.20;;;20.30;67.10;;;;;;5115856;28;20581;-66
2023/09/27 10:29:03;;;;;;;2.55;2.22;;;20.40;67.00;;;;;;5115069;28;20240;-67
2023/09/27 10:31:29;;;;;;;2.40;2.20;;;20.40;66.90;;;;;;5115691;28;20173;-67
2023/09/27 10:33:55;;;;;;;2.17;2.03;;;20.40;66.90;;;;;;5116062;28;20173;-66
2023/09/27 10:36:20;;;;;;;2.70;2.50;;;20.40;66.90;;;;;;5114939;28;20221;-66
2023/09/27 10:38:49;;;;;;;2.50;2.30;;;20.50;66.80;;;;;;5115882;28;20200;-66
2023/09/27 10:41:38;;;;;;;2.40;2.20;;;20.50;66.60;;;;;;5115567;28;20202;-67
2023/09/27 10:44:03;;;;;;;2.72;2.50;;;20.50;66.60;;;;;;5115267;28;20595;-67
2023/09/27 10:46:48;;;;;;;3.50;2.70;;;20.40;66.80;;;;;;5115561;28;20378;-67
2023/09/27 10:49:27;;;;;;;2.58;2.38;;;20.40;66.90;;;;;;5113626;28;20208;-67
2023/09/27 10:51:53;;;;;;;2.33;2.13;;;20.40;67.00;;;;;;5115613;28;20207;-66
2023/09/27 10:54:28;;;;;;;2.92;2.63;;;20.40;67.10;;;;;;5115081;28;20184;-66
2023/09/27 10:56:53;;;;;;;2.50;2.30;;;20.40;67.00;;;;;;5114973;28;20270;-66
2023/09/27 10:59:26;;;;;;;2.50;2.30;;;20.40;66.90;;;;;;5115130;28;20627;-66
2023/09/27 11:01:52;;;;;;;2.33;2.13;;;20.50;67.00;;;;;;5115429;28;20173;-67
2023/09/27 11:04:23;;;;;;;2.67;2.20;;;20.50;66.90;;;;;;5114056;28;20234;-67
2023/09/27 11:06:49;;;;;;;2.80;2.60;;;20.50;67.00;;;;;;5115398;28;20181;-66
2023/09/27 11:09:19;;;;;;;2.30;2.20;;;20.40;67.00;;;;;;5114794;28;20220;-67
2023/09/27 11:11:46;;;;;;;2.70;2.50;;;20.40;67.10;;;;;;5114648;28;20221;-66
2023/09/27 11:14:12;;;;;;;2.97;2.78;;;20.40;67.00;;;;;;5114726;28;20196;-67
2023/09/27 11:16:38;;;;;;;2.63;2.42;;;20.50;66.90;;;;;;5114925;28;20181;-67
2023/09/27 11:19:04;;;;;;;2.70;2.50;;;20.50;66.90;;;;;;5114270;28;20624;-66
2023/09/27 11:21:31;;;;;;;3.10;2.80;;;20.50;67.00;;;;;;5114679;28;20175;-67
2023/09/27 11:24:07;;;;;;;2.45;2.25;;;20.40;67.00;;;;;;5114412;28;20238;-67
2023/09/27 11:26:32;;;;;;;2.40;2.20;;;20.40;67.00;;;;;;5114964;28;20179;-66
2023/09/27 11:29:07;;;;;;;2.97;2.78;;;20.40;67.00;;;;;;5114499;28;20563;-67
2023/09/27 11:31:39;;;;;;;2.42;2.25;;;20.50;67.10;;;;;;5114170;28;20175;-66
2023/09/27 11:34:18;;;;;;;2.75;2.55;;;20.50;67.10;;;;;;5114301;28;20591;-67
2023/09/27 11:36:48;;;;;;;2.65;2.45;;;20.40;67.00;;;;;;5114805;28;20189;-66
2023/09/27 11:39:14;;;;;;;2.75;2.55;;;20.40;67.10;;;;;;5113730;28;20202;-66
2023/09/27 11:41:39;;;;;;;3.25;2.90;;;20.40;67.20;;;;;;5114476;28;20169;-65
2023/09/27 11:44:18;;;;;;;2.90;2.38;;;20.40;67.20;;;;;;5114223;28;20176;-68
2023/09/27 11:46:44;;;;;;;2.78;2.58;;;20.30;67.20;;;;;;5113611;28;20235;-67
2023/09/27 11:49:10;;;;;;;2.40;2.20;;;20.30;67.30;;;;;;5114196;28;20217;-67
2023/09/27 11:51:35;;;;;;;2.88;2.65;;;20.40;67.40;;;;;;5114229;28;20256;-66
2023/09/27 11:54:04;;;;;;;2.83;2.63;;;20.30;67.30;;;;;;5113522;28;20177;-65
2023/09/27 11:56:30;;;;;;;2.80;2.60;;;20.40;67.30;;;;;;5114272;28;20175;-66
2023/09/27 11:58:56;;;;;;;2.60;2.40;;;20.40;67.20;;;;;;5113367;28;20173;-67
2023/09/27 12:01:21;;;;;;;2.70;2.50;;;20.50;67.00;;;;;;5113985;28;20711;-66
2023/09/27 12:03:47;;;;;;;2.50;2.30;;;20.60;66.80;;;;;;5114255;28;20176;-67
2023/09/27 12:06:12;;;;;;;2.58;2.38;;;20.60;66.70;;;;;;5113183;28;20522;-67
2023/09/27 12:08:38;;;;;;;2.95;2.75;;;20.60;66.60;;;;;;5113971;28;20227;-67
2023/09/27 12:11:04;;;;;;;2.53;2.22;;;20.60;66.50;;;;;;5113686;28;20169;-67
2023/09/27 12:13:29;;;;;;;2.70;2.50;;;20.70;66.50;;;;;;5113046;28;20212;-67
2023/09/27 12:15:55;;;;;;;2.60;2.40;;;20.70;66.40;;;;;;5114152;28;20215;-67
2023/09/27 12:18:21;;;;;;;2.50;2.30;;;20.70;66.40;;;;;;5113459;28;20169;-67
2023/09/27 12:20:47;;;;;;;2.75;2.55;;;20.70;66.30;;;;;;5113415;28;20165;-67
2023/09/27 12:23:13;;;;;;;2.95;2.47;;;20.80;66.40;;;;;;5113676;28;20281;-67
2023/09/27 12:25:38;;;;;;;2.65;2.50;;;20.70;66.20;;;;;;5113746;28;20192;-67
2023/09/27 12:28:04;;;;;;;2.55;2.35;;;20.80;66.30;;;;;;5112581;28;20205;-67
2023/09/27 12:30:30;;;;;;;3.05;2.55;;;20.80;66.30;;;;;;5113554;28;20169;-67
2023/09/27 12:32:55;;;;;;;2.60;2.40;;;20.80;66.30;;;;;;5113788;28;20233;-67
2023/09/27 12:35:21;;;;;;;2.63;2.42;;;20.80;66.40;;;;;;5112663;28;20302;-67
2023/09/27 12:37:48;;;;;;;2.50;2.30;;;20.80;66.50;;;;;;5113628;28;20264;-66
2023/09/27 12:40:13;;;;;;;2.72;2.53;;;20.80;66.40;;;;;;5113415;28;20171;-67
2023/09/27 12:42:39;;;;;;;2.90;2.70;;;20.90;66.30;;;;;;5112715;28;20760;-67
2023/09/27 12:45:07;;;;;;;2.60;2.40;;;20.90;66.30;;;;;;5113005;28;20181;-67
2023/09/27 12:47:33;;;;;;;3.17;2.88;;;20.90;66.30;;;;;;5112998;28;20232;-67
2023/09/27 12:49:59;;;;;;;3.05;2.75;;;20.90;66.40;;;;;;5112404;28;20181;-67